sensor_id;sensor_type;location;lat;lon;timestamp;P1;durP1;ratioP1;P2;durP2;ratioP2
15629;SDS011;7914;50.842;0.166;2023-02-01T00:00:19;1.07;;;1.07;;
15629;SDS011;7914;50.842;0.166;2023-02-01T00:02:44;1.20;;;1.20;;
15629;SDS011;7914;50.842;0.166;2023-02-01T00:05:10;1.30;;;1.30;;
15629;SDS011;7914;50.842;0.166;2023-02-01T00:07:36;1.27;;;1.27;;
15629;SDS011;7914;50.842;0.166;2023-02-01T00:10:03;1.30;;;1.30;;
15629;SDS011;7914;50.842;0.166;2023-02-01T00:12:30;1.20;;;1.20;;
15629;SDS011;7914;50.842;0.166;2023-02-01T00:14:56;1.20;;;1.20;;
15629;SDS011;7914;50.842;0.166;2023-02-01T00:17:22;1.40;;;1.40;;
15629;SDS011;7914;50.842;0.166;2023-02-01T00:19:48;1.30;;;1.30;;
15629;SDS011;7914;50.842;0.166;2023-02-01T00:22:13;1.30;;;1.30;;
15629;SDS011;7914;50.842;0.166;2023-02-01T00:24:39;1.30;;;1.30;;
15629;SDS011;7914;50.842;0.166;2023-02-01T00:27:05;1.10;;;1.10;;
15629;SDS011;7914;50.842;0.166;2023-02-01T00:29:31;1.10;;;1.10;;
15629;SDS011;7914;50.842;0.166;2023-02-01T00:31:56;1.20;;;1.20;;
15629;SDS011;7914;50.842;0.166;2023-02-01T00:34:22;1.10;;;1.10;;
15629;SDS011;7914;50.842;0.166;2023-02-01T00:36:47;1.20;;;1.20;;
15629;SDS011;7914;50.842;0.166;2023-02-01T00:39:15;1.20;;;1.20;;
15629;SDS011;7914;50.842;0.166;2023-02-01T00:41:41;1.10;;;1.10;;
15629;SDS011;7914;50.842;0.166;2023-02-01T00:44:06;1.10;;;1.10;;
15629;SDS011;7914;50.842;0.166;2023-02-01T00:46:32;1.10;;;1.10;;
15629;SDS011;7914;50.842;0.166;2023-02-01T00:48:58;1.13;;;1.13;;
15629;SDS011;7914;50.842;0.166;2023-02-01T00:51:25;1.20;;;1.20;;
15629;SDS011;7914;50.842;0.166;2023-02-01T00:53:53;1.00;;;1.00;;
15629;SDS011;7914;50.842;0.166;2023-02-01T00:56:19;1.20;;;1.20;;
15629;SDS011;7914;50.842;0.166;2023-02-01T00:58:45;1.00;;;1.00;;
15629;SDS011;7914;50.842;0.166;2023-02-01T01:03:40;1.30;;;1.30;;
15629;SDS011;7914;50.842;0.166;2023-02-01T01:06:12;1.13;;;1.13;;
15629;SDS011;7914;50.842;0.166;2023-02-01T01:08:39;1.20;;;1.20;;
15629;SDS011;7914;50.842;0.166;2023-02-01T01:11:07;1.20;;;1.20;;
15629;SDS011;7914;50.842;0.166;2023-02-01T01:13:34;1.20;;;1.20;;
15629;SDS011;7914;50.842;0.166;2023-02-01T01:16:01;1.30;;;1.30;;
15629;SDS011;7914;50.842;0.166;2023-02-01T01:18:28;1.30;;;1.30;;
15629;SDS011;7914;50.842;0.166;2023-02-01T01:20:54;1.23;;;1.23;;
15629;SDS011;7914;50.842;0.166;2023-02-01T01:23:20;1.40;;;1.40;;
15629;SDS011;7914;50.842;0.166;2023-02-01T01:25:46;1.40;;;1.40;;
15629;SDS011;7914;50.842;0.166;2023-02-01T01:28:11;1.20;;;1.20;;
15629;SDS011;7914;50.842;0.166;2023-02-01T01:30:37;1.20;;;1.20;;
15629;SDS011;7914;50.842;0.166;2023-02-01T01:33:03;1.20;;;1.20;;
15629;SDS011;7914;50.842;0.166;2023-02-01T01:35:30;1.40;;;1.40;;
15629;SDS011;7914;50.842;0.166;2023-02-01T01:37:56;1.23;;;1.23;;
15629;SDS011;7914;50.842;0.166;2023-02-01T01:40:23;1.17;;;1.17;;
15629;SDS011;7914;50.842;0.166;2023-02-01T01:42:48;1.27;;;1.27;;
15629;SDS011;7914;50.842;0.166;2023-02-01T01:45:24;1.17;;;1.17;;
15629;SDS011;7914;50.842;0.166;2023-02-01T01:47:56;1.40;;;1.40;;
15629;SDS011;7914;50.842;0.166;2023-02-01T01:50:26;1.50;;;1.50;;
15629;SDS011;7914;50.842;0.166;2023-02-01T01:52:54;1.30;;;1.30;;
15629;SDS011;7914;50.842;0.166;2023-02-01T01:55:23;1.50;;;1.50;;
15629;SDS011;7914;50.842;0.166;2023-02-01T01:57:53;1.70;;;1.70;;
15629;SDS011;7914;50.842;0.166;2023-02-01T02:00:23;1.30;;;1.30;;
15629;SDS011;7914;50.842;0.166;2023-02-01T02:02:52;1.80;;;1.80;;
15629;SDS011;7914;50.842;0.166;2023-02-01T02:05:21;1.53;;;1.53;;
15629;SDS011;7914;50.842;0.166;2023-02-01T02:07:48;1.80;;;1.80;;
15629;SDS011;7914;50.842;0.166;2023-02-01T02:10:16;1.50;;;1.50;;
15629;SDS011;7914;50.842;0.166;2023-02-01T02:12:43;1.57;;;1.50;;
15629;SDS011;7914;50.842;0.166;2023-02-01T02:15:11;1.63;;;1.63;;
15629;SDS011;7914;50.842;0.166;2023-02-01T02:17:58;1.40;;;1.40;;
15629;SDS011;7914;50.842;0.166;2023-02-01T02:29:17;1.40;;;1.40;;
15629;SDS011;7914;50.842;0.166;2023-02-01T02:35:05;1.40;;;1.40;;
15629;SDS011;7914;50.842;0.166;2023-02-01T02:37:46;1.60;;;1.60;;
15629;SDS011;7914;50.842;0.166;2023-02-01T02:40:23;1.23;;;1.23;;
15629;SDS011;7914;50.842;0.166;2023-02-01T02:51:49;1.47;;;1.47;;
15629;SDS011;7914;50.842;0.166;2023-02-01T02:54:52;1.30;;;1.30;;
15629;SDS011;7914;50.842;0.166;2023-02-01T02:57:24;1.20;;;1.20;;
15629;SDS011;7914;50.842;0.166;2023-02-01T03:00:11;1.20;;;1.20;;
15629;SDS011;7914;50.842;0.166;2023-02-01T03:02:58;1.20;;;1.20;;
15629;SDS011;7914;50.842;0.166;2023-02-01T03:05:44;1.20;;;1.20;;
15629;SDS011;7914;50.842;0.166;2023-02-01T03:08:13;1.20;;;1.20;;
15629;SDS011;7914;50.842;0.166;2023-02-01T03:10:48;1.10;;;1.10;;
15629;SDS011;7914;50.842;0.166;2023-02-01T03:16:19;1.20;;;1.20;;
15629;SDS011;7914;50.842;0.166;2023-02-01T03:19:14;1.20;;;1.20;;
15629;SDS011;7914;50.842;0.166;2023-02-01T03:21:45;1.13;;;1.13;;
15629;SDS011;7914;50.842;0.166;2023-02-01T03:24:18;1.00;;;1.00;;
15629;SDS011;7914;50.842;0.166;2023-02-01T03:29:51;1.10;;;1.10;;
15629;SDS011;7914;50.842;0.166;2023-02-01T03:32:30;1.00;;;1.00;;
15629;SDS011;7914;50.842;0.166;2023-02-01T03:35:17;1.07;;;1.07;;
15629;SDS011;7914;50.842;0.166;2023-02-01T03:37:44;1.00;;;1.00;;
15629;SDS011;7914;50.842;0.166;2023-02-01T03:40:10;0.80;;;0.80;;
15629;SDS011;7914;50.842;0.166;2023-02-01T03:42:44;0.93;;;0.93;;
15629;SDS011;7914;50.842;0.166;2023-02-01T03:45:18;1.03;;;1.03;;
15629;SDS011;7914;50.842;0.166;2023-02-01T03:47:48;0.90;;;0.90;;
15629;SDS011;7914;50.842;0.166;2023-02-01T03:50:17;1.10;;;1.10;;
15629;SDS011;7914;50.842;0.166;2023-02-01T03:55:31;1.10;;;1.10;;
15629;SDS011;7914;50.842;0.166;2023-02-01T03:58:09;1.00;;;1.00;;
15629;SDS011;7914;50.842;0.166;2023-02-01T04:00:55;0.90;;;0.90;;
15629;SDS011;7914;50.842;0.166;2023-02-01T04:03:22;1.10;;;1.10;;
15629;SDS011;7914;50.842;0.166;2023-02-01T04:05:50;0.90;;;0.90;;
15629;SDS011;7914;50.842;0.166;2023-02-01T04:08:17;1.00;;;1.00;;
15629;SDS011;7914;50.842;0.166;2023-02-01T04:10:44;1.10;;;1.10;;
15629;SDS011;7914;50.842;0.166;2023-02-01T04:13:09;1.20;;;1.20;;
15629;SDS011;7914;50.842;0.166;2023-02-01T04:15:35;1.17;;;1.17;;
15629;SDS011;7914;50.842;0.166;2023-02-01T04:18:01;1.00;;;1.00;;
15629;SDS011;7914;50.842;0.166;2023-02-01T04:20:27;1.00;;;1.00;;
15629;SDS011;7914;50.842;0.166;2023-02-01T04:22:53;1.10;;;1.10;;
15629;SDS011;7914;50.842;0.166;2023-02-01T04:25:18;1.10;;;1.10;;
15629;SDS011;7914;50.842;0.166;2023-02-01T04:27:44;1.00;;;1.00;;
15629;SDS011;7914;50.842;0.166;2023-02-01T04:30:10;1.10;;;1.10;;
15629;SDS011;7914;50.842;0.166;2023-02-01T04:32:37;1.23;;;1.23;;
15629;SDS011;7914;50.842;0.166;2023-02-01T04:35:03;1.30;;;1.30;;
15629;SDS011;7914;50.842;0.166;2023-02-01T04:37:29;1.20;;;1.20;;
15629;SDS011;7914;50.842;0.166;2023-02-01T04:39:55;1.20;;;1.20;;
15629;SDS011;7914;50.842;0.166;2023-02-01T04:42:21;1.20;;;1.20;;
15629;SDS011;7914;50.842;0.166;2023-02-01T04:44:46;1.10;;;1.10;;
15629;SDS011;7914;50.842;0.166;2023-02-01T04:47:12;1.17;;;1.17;;
15629;SDS011;7914;50.842;0.166;2023-02-01T04:49:39;1.10;;;1.10;;
15629;SDS011;7914;50.842;0.166;2023-02-01T04:52:05;1.20;;;1.20;;
15629;SDS011;7914;50.842;0.166;2023-02-01T04:54:30;1.20;;;1.20;;
15629;SDS011;7914;50.842;0.166;2023-02-01T04:56:56;1.20;;;1.20;;
15629;SDS011;7914;50.842;0.166;2023-02-01T04:59:22;1.17;;;1.17;;
15629;SDS011;7914;50.842;0.166;2023-02-01T05:01:47;1.10;;;1.10;;
15629;SDS011;7914;50.842;0.166;2023-02-01T05:04:13;1.00;;;1.00;;
15629;SDS011;7914;50.842;0.166;2023-02-01T05:06:39;1.03;;;1.03;;
15629;SDS011;7914;50.842;0.166;2023-02-01T05:09:04;0.90;;;0.90;;
15629;SDS011;7914;50.842;0.166;2023-02-01T05:11:30;1.00;;;1.00;;
15629;SDS011;7914;50.842;0.166;2023-02-01T05:14:14;0.80;;;0.80;;
15629;SDS011;7914;50.842;0.166;2023-02-01T05:16:40;0.90;;;0.90;;
15629;SDS011;7914;50.842;0.166;2023-02-01T05:19:06;0.80;;;0.80;;
15629;SDS011;7914;50.842;0.166;2023-02-01T05:21:31;0.90;;;0.90;;
15629;SDS011;7914;50.842;0.166;2023-02-01T05:23:57;0.90;;;0.90;;
15629;SDS011;7914;50.842;0.166;2023-02-01T05:26:35;0.90;;;0.90;;
15629;SDS011;7914;50.842;0.166;2023-02-01T05:29:05;1.00;;;1.00;;
15629;SDS011;7914;50.842;0.166;2023-02-01T05:31:31;0.93;;;0.93;;
15629;SDS011;7914;50.842;0.166;2023-02-01T05:33:57;1.00;;;1.00;;
15629;SDS011;7914;50.842;0.166;2023-02-01T05:36:25;0.93;;;0.93;;
15629;SDS011;7914;50.842;0.166;2023-02-01T05:38:51;1.07;;;1.07;;
15629;SDS011;7914;50.842;0.166;2023-02-01T05:41:16;0.90;;;0.90;;
15629;SDS011;7914;50.842;0.166;2023-02-01T05:43:42;0.90;;;0.90;;
15629;SDS011;7914;50.842;0.166;2023-02-01T05:46:08;1.00;;;1.00;;
15629;SDS011;7914;50.842;0.166;2023-02-01T05:48:37;1.00;;;1.00;;
15629;SDS011;7914;50.842;0.166;2023-02-01T05:51:03;0.90;;;0.90;;
15629;SDS011;7914;50.842;0.166;2023-02-01T05:53:29;1.17;;;1.17;;
15629;SDS011;7914;50.842;0.166;2023-02-01T05:55:55;0.93;;;0.93;;
15629;SDS011;7914;50.842;0.166;2023-02-01T05:58:20;1.00;;;1.00;;
15629;SDS011;7914;50.842;0.166;2023-02-01T06:00:46;1.03;;;1.03;;
15629;SDS011;7914;50.842;0.166;2023-02-01T06:03:12;1.17;;;1.17;;
15629;SDS011;7914;50.842;0.166;2023-02-01T06:05:37;1.10;;;1.10;;
15629;SDS011;7914;50.842;0.166;2023-02-01T06:08:03;1.37;;;1.37;;
15629;SDS011;7914;50.842;0.166;2023-02-01T06:10:29;1.20;;;1.20;;
15629;SDS011;7914;50.842;0.166;2023-02-01T06:12:55;1.40;;;1.40;;
15629;SDS011;7914;50.842;0.166;2023-02-01T06:15:20;1.10;;;1.10;;
15629;SDS011;7914;50.842;0.166;2023-02-01T06:17:46;1.17;;;1.17;;
15629;SDS011;7914;50.842;0.166;2023-02-01T06:20:12;1.20;;;1.20;;
15629;SDS011;7914;50.842;0.166;2023-02-01T06:22:40;1.20;;;1.20;;
15629;SDS011;7914;50.842;0.166;2023-02-01T06:25:06;1.20;;;1.20;;
15629;SDS011;7914;50.842;0.166;2023-02-01T06:27:33;1.10;;;1.10;;
15629;SDS011;7914;50.842;0.166;2023-02-01T06:29:59;1.20;;;1.20;;
15629;SDS011;7914;50.842;0.166;2023-02-01T06:32:25;1.07;;;1.07;;
15629;SDS011;7914;50.842;0.166;2023-02-01T06:34:50;1.10;;;1.10;;
15629;SDS011;7914;50.842;0.166;2023-02-01T06:37:20;1.00;;;1.00;;
15629;SDS011;7914;50.842;0.166;2023-02-01T06:39:48;1.20;;;1.20;;
15629;SDS011;7914;50.842;0.166;2023-02-01T06:42:14;1.10;;;1.10;;
15629;SDS011;7914;50.842;0.166;2023-02-01T06:44:40;1.00;;;1.00;;
15629;SDS011;7914;50.842;0.166;2023-02-01T06:47:05;1.00;;;1.00;;
15629;SDS011;7914;50.842;0.166;2023-02-01T06:49:31;0.93;;;0.93;;
15629;SDS011;7914;50.842;0.166;2023-02-01T06:51:57;1.17;;;1.17;;
15629;SDS011;7914;50.842;0.166;2023-02-01T06:54:25;1.00;;;1.00;;
15629;SDS011;7914;50.842;0.166;2023-02-01T06:56:57;1.00;;;1.00;;
15629;SDS011;7914;50.842;0.166;2023-02-01T06:59:22;0.90;;;0.90;;
15629;SDS011;7914;50.842;0.166;2023-02-01T07:01:48;1.00;;;1.00;;
15629;SDS011;7914;50.842;0.166;2023-02-01T07:04:15;0.80;;;0.80;;
15629;SDS011;7914;50.842;0.166;2023-02-01T07:06:40;1.00;;;1.00;;
15629;SDS011;7914;50.842;0.166;2023-02-01T07:09:07;0.90;;;0.90;;
15629;SDS011;7914;50.842;0.166;2023-02-01T07:11:33;0.90;;;0.90;;
15629;SDS011;7914;50.842;0.166;2023-02-01T07:13:59;0.97;;;0.97;;
15629;SDS011;7914;50.842;0.166;2023-02-01T07:16:25;0.90;;;0.90;;
15629;SDS011;7914;50.842;0.166;2023-02-01T07:18:51;0.90;;;0.90;;
15629;SDS011;7914;50.842;0.166;2023-02-01T07:21:18;0.90;;;0.90;;
15629;SDS011;7914;50.842;0.166;2023-02-01T07:23:44;1.00;;;1.00;;
15629;SDS011;7914;50.842;0.166;2023-02-01T07:26:11;0.90;;;0.90;;
15629;SDS011;7914;50.842;0.166;2023-02-01T07:28:38;1.07;;;1.07;;
15629;SDS011;7914;50.842;0.166;2023-02-01T07:31:05;0.93;;;0.93;;
15629;SDS011;7914;50.842;0.166;2023-02-01T07:33:32;1.00;;;1.00;;
15629;SDS011;7914;50.842;0.166;2023-02-01T07:35:59;1.10;;;1.10;;
15629;SDS011;7914;50.842;0.166;2023-02-01T07:38:27;1.10;;;1.10;;
15629;SDS011;7914;50.842;0.166;2023-02-01T07:40:57;1.07;;;1.07;;
15629;SDS011;7914;50.842;0.166;2023-02-01T07:43:27;1.30;;;1.30;;
15629;SDS011;7914;50.842;0.166;2023-02-01T07:45:54;1.10;;;1.10;;
15629;SDS011;7914;50.842;0.166;2023-02-01T07:48:21;1.00;;;1.00;;
15629;SDS011;7914;50.842;0.166;2023-02-01T07:50:47;1.27;;;1.27;;
15629;SDS011;7914;50.842;0.166;2023-02-01T07:53:13;1.10;;;1.10;;
15629;SDS011;7914;50.842;0.166;2023-02-01T07:55:39;1.10;;;1.10;;
15629;SDS011;7914;50.842;0.166;2023-02-01T07:58:05;1.20;;;1.20;;
15629;SDS011;7914;50.842;0.166;2023-02-01T08:00:31;1.20;;;1.20;;
15629;SDS011;7914;50.842;0.166;2023-02-01T08:03:16;1.10;;;1.10;;
15629;SDS011;7914;50.842;0.166;2023-02-01T08:05:41;1.07;;;1.07;;
15629;SDS011;7914;50.842;0.166;2023-02-01T08:08:08;0.90;;;0.90;;
15629;SDS011;7914;50.842;0.166;2023-02-01T08:10:34;1.00;;;1.00;;
15629;SDS011;7914;50.842;0.166;2023-02-01T08:13:00;0.90;;;0.90;;
15629;SDS011;7914;50.842;0.166;2023-02-01T08:15:27;0.90;;;0.90;;
15629;SDS011;7914;50.842;0.166;2023-02-01T08:17:53;0.90;;;0.90;;
15629;SDS011;7914;50.842;0.166;2023-02-01T08:20:23;0.90;;;0.90;;
15629;SDS011;7914;50.842;0.166;2023-02-01T08:22:50;0.80;;;0.80;;
15629;SDS011;7914;50.842;0.166;2023-02-01T08:25:16;1.00;;;1.00;;
15629;SDS011;7914;50.842;0.166;2023-02-01T08:27:42;1.00;;;1.00;;
15629;SDS011;7914;50.842;0.166;2023-02-01T08:30:09;0.90;;;0.90;;
15629;SDS011;7914;50.842;0.166;2023-02-01T08:32:35;0.70;;;0.70;;
15629;SDS011;7914;50.842;0.166;2023-02-01T08:35:01;0.80;;;0.80;;
15629;SDS011;7914;50.842;0.166;2023-02-01T08:37:28;0.90;;;0.90;;
15629;SDS011;7914;50.842;0.166;2023-02-01T08:39:54;1.00;;;1.00;;
15629;SDS011;7914;50.842;0.166;2023-02-01T08:42:19;0.90;;;0.90;;
15629;SDS011;7914;50.842;0.166;2023-02-01T08:45:05;0.90;;;0.90;;
15629;SDS011;7914;50.842;0.166;2023-02-01T08:47:33;1.00;;;1.00;;
15629;SDS011;7914;50.842;0.166;2023-02-01T08:49:59;0.90;;;0.90;;
15629;SDS011;7914;50.842;0.166;2023-02-01T08:52:25;0.80;;;0.80;;
15629;SDS011;7914;50.842;0.166;2023-02-01T08:54:51;0.90;;;0.90;;
15629;SDS011;7914;50.842;0.166;2023-02-01T08:57:17;0.87;;;0.87;;
15629;SDS011;7914;50.842;0.166;2023-02-01T08:59:42;0.80;;;0.80;;
15629;SDS011;7914;50.842;0.166;2023-02-01T09:02:12;0.80;;;0.80;;
15629;SDS011;7914;50.842;0.166;2023-02-01T09:04:39;0.80;;;0.80;;
15629;SDS011;7914;50.842;0.166;2023-02-01T09:07:06;0.97;;;0.97;;
15629;SDS011;7914;50.842;0.166;2023-02-01T09:09:32;1.00;;;1.00;;
15629;SDS011;7914;50.842;0.166;2023-02-01T09:11:58;0.70;;;0.70;;
15629;SDS011;7914;50.842;0.166;2023-02-01T09:14:23;0.80;;;0.80;;
15629;SDS011;7914;50.842;0.166;2023-02-01T09:16:49;0.70;;;0.70;;
15629;SDS011;7914;50.842;0.166;2023-02-01T09:19:15;0.70;;;0.70;;
15629;SDS011;7914;50.842;0.166;2023-02-01T09:21:40;0.73;;;0.73;;
15629;SDS011;7914;50.842;0.166;2023-02-01T09:24:06;0.70;;;0.70;;
15629;SDS011;7914;50.842;0.166;2023-02-01T09:26:33;0.70;;;0.70;;
15629;SDS011;7914;50.842;0.166;2023-02-01T09:28:59;0.77;;;0.77;;
15629;SDS011;7914;50.842;0.166;2023-02-01T09:31:25;0.60;;;0.60;;
15629;SDS011;7914;50.842;0.166;2023-02-01T09:33:51;0.60;;;0.60;;
15629;SDS011;7914;50.842;0.166;2023-02-01T09:36:17;0.60;;;0.60;;
15629;SDS011;7914;50.842;0.166;2023-02-01T09:38:44;0.70;;;0.70;;
15629;SDS011;7914;50.842;0.166;2023-02-01T09:43:48;0.60;;;0.60;;
15629;SDS011;7914;50.842;0.166;2023-02-01T09:46:28;0.70;;;0.70;;
15629;SDS011;7914;50.842;0.166;2023-02-01T09:48:57;0.70;;;0.70;;
15629;SDS011;7914;50.842;0.166;2023-02-01T09:51:39;0.73;;;0.73;;
15629;SDS011;7914;50.842;0.166;2023-02-01T09:56:44;0.80;;;0.80;;
15629;SDS011;7914;50.842;0.166;2023-02-01T09:59:20;0.87;;;0.87;;
15629;SDS011;7914;50.842;0.166;2023-02-01T10:01:57;0.70;;;0.70;;
15629;SDS011;7914;50.842;0.166;2023-02-01T10:04:24;0.70;;;0.70;;
15629;SDS011;7914;50.842;0.166;2023-02-01T10:12:35;0.70;;;0.70;;
15629;SDS011;7914;50.842;0.166;2023-02-01T10:23:28;0.90;;;0.90;;
15629;SDS011;7914;50.842;0.166;2023-02-01T10:29:15;0.60;;;0.60;;
15629;SDS011;7914;50.842;0.166;2023-02-01T10:31:38;0.70;;;0.70;;
15629;SDS011;7914;50.842;0.166;2023-02-01T10:34:09;0.60;;;0.60;;
15629;SDS011;7914;50.842;0.166;2023-02-01T10:39:52;0.70;;;0.70;;
15629;SDS011;7914;50.842;0.166;2023-02-01T10:42:20;0.70;;;0.70;;
15629;SDS011;7914;50.842;0.166;2023-02-01T10:44:49;0.80;;;0.80;;
15629;SDS011;7914;50.842;0.166;2023-02-01T10:47:15;0.80;;;0.80;;
15629;SDS011;7914;50.842;0.166;2023-02-01T10:49:43;0.73;;;0.73;;
15629;SDS011;7914;50.842;0.166;2023-02-01T10:52:30;0.70;;;0.70;;
15629;SDS011;7914;50.842;0.166;2023-02-01T10:55:46;0.60;;;0.60;;
15629;SDS011;7914;50.842;0.166;2023-02-01T10:57:59;0.60;;;0.60;;
15629;SDS011;7914;50.842;0.166;2023-02-01T11:00:26;0.63;;;0.63;;
15629;SDS011;7914;50.842;0.166;2023-02-01T11:02:53;0.60;;;0.60;;
15629;SDS011;7914;50.842;0.166;2023-02-01T11:05:20;0.67;;;0.67;;
15629;SDS011;7914;50.842;0.166;2023-02-01T11:07:51;0.50;;;0.50;;
15629;SDS011;7914;50.842;0.166;2023-02-01T11:13:11;0.60;;;0.60;;
15629;SDS011;7914;50.842;0.166;2023-02-01T11:15:46;0.70;;;0.70;;
15629;SDS011;7914;50.842;0.166;2023-02-01T11:18:24;0.70;;;0.70;;
15629;SDS011;7914;50.842;0.166;2023-02-01T11:20:53;0.67;;;0.67;;
15629;SDS011;7914;50.842;0.166;2023-02-01T11:23:24;0.60;;;0.60;;
15629;SDS011;7914;50.842;0.166;2023-02-01T11:25:56;0.70;;;0.70;;
15629;SDS011;7914;50.842;0.166;2023-02-01T11:28:25;0.80;;;0.80;;
15629;SDS011;7914;50.842;0.166;2023-02-01T11:30:53;0.70;;;0.70;;
15629;SDS011;7914;50.842;0.166;2023-02-01T11:33:23;0.60;;;0.60;;
15629;SDS011;7914;50.842;0.166;2023-02-01T11:35:55;0.80;;;0.80;;
15629;SDS011;7914;50.842;0.166;2023-02-01T11:38:29;0.70;;;0.70;;
15629;SDS011;7914;50.842;0.166;2023-02-01T11:41:12;0.60;;;0.60;;
15629;SDS011;7914;50.842;0.166;2023-02-01T11:46:24;0.80;;;0.80;;
15629;SDS011;7914;50.842;0.166;2023-02-01T11:49:10;0.70;;;0.70;;
15629;SDS011;7914;50.842;0.166;2023-02-01T12:13:14;0.80;;;0.80;;
15629;SDS011;7914;50.842;0.166;2023-02-01T12:31:59;0.90;;;0.90;;
15629;SDS011;7914;50.842;0.166;2023-02-01T12:42:21;1.00;;;1.00;;
15629;SDS011;7914;50.842;0.166;2023-02-01T12:47:44;0.90;;;0.90;;
15629;SDS011;7914;50.842;0.166;2023-02-01T12:52:50;0.90;;;0.90;;
15629;SDS011;7914;50.842;0.166;2023-02-01T12:55:24;0.70;;;0.70;;
15629;SDS011;7914;50.842;0.166;2023-02-01T12:58:11;0.90;;;0.90;;
15629;SDS011;7914;50.842;0.166;2023-02-01T13:00:49;1.07;;;1.07;;
15629;SDS011;7914;50.842;0.166;2023-02-01T13:03:36;0.70;;;0.70;;
15629;SDS011;7914;50.842;0.166;2023-02-01T13:06:14;0.77;;;0.77;;
15629;SDS011;7914;50.842;0.166;2023-02-01T13:08:48;0.90;;;0.90;;
15629;SDS011;7914;50.842;0.166;2023-02-01T13:11:31;0.97;;;0.97;;
15629;SDS011;7914;50.842;0.166;2023-02-01T13:16:45;0.90;;;0.90;;
15629;SDS011;7914;50.842;0.166;2023-02-01T13:22:00;1.00;;;1.00;;
15629;SDS011;7914;50.842;0.166;2023-02-01T13:24:43;1.20;;;1.20;;
15629;SDS011;7914;50.842;0.166;2023-02-01T13:27:21;1.10;;;1.10;;
15629;SDS011;7914;50.842;0.166;2023-02-01T13:29:52;1.20;;;1.20;;
15629;SDS011;7914;50.842;0.166;2023-02-01T13:35:25;1.00;;;1.00;;
15629;SDS011;7914;50.842;0.166;2023-02-01T13:41:31;0.90;;;0.90;;
15629;SDS011;7914;50.842;0.166;2023-02-01T13:44:05;0.90;;;0.90;;
15629;SDS011;7914;50.842;0.166;2023-02-01T13:46:41;0.80;;;0.80;;
15629;SDS011;7914;50.842;0.166;2023-02-01T13:49:15;0.80;;;0.80;;
15629;SDS011;7914;50.842;0.166;2023-02-01T13:51:51;0.90;;;0.90;;
15629;SDS011;7914;50.842;0.166;2023-02-01T13:54:38;0.80;;;0.80;;
15629;SDS011;7914;50.842;0.166;2023-02-01T13:57:06;0.80;;;0.80;;
15629;SDS011;7914;50.842;0.166;2023-02-01T14:00:33;0.70;;;0.70;;
15629;SDS011;7914;50.842;0.166;2023-02-01T14:13:39;0.80;;;0.80;;
15629;SDS011;7914;50.842;0.166;2023-02-01T14:34:13;0.77;;;0.77;;
15629;SDS011;7914;50.842;0.166;2023-02-01T14:37:03;0.80;;;0.80;;
15629;SDS011;7914;50.842;0.166;2023-02-01T14:39:33;0.67;;;0.67;;
15629;SDS011;7914;50.842;0.166;2023-02-01T14:42:14;0.70;;;0.70;;
15629;SDS011;7914;50.842;0.166;2023-02-01T14:44:47;0.80;;;0.80;;
15629;SDS011;7914;50.842;0.166;2023-02-01T14:52:20;0.67;;;0.67;;
15629;SDS011;7914;50.842;0.166;2023-02-01T14:54:55;0.70;;;0.70;;
15629;SDS011;7914;50.842;0.166;2023-02-01T14:57:25;0.83;;;0.83;;
15629;SDS011;7914;50.842;0.166;2023-02-01T14:59:54;0.90;;;0.90;;
15629;SDS011;7914;50.842;0.166;2023-02-01T15:02:30;0.70;;;0.70;;
15629;SDS011;7914;50.842;0.166;2023-02-01T15:04:58;0.70;;;0.70;;
15629;SDS011;7914;50.842;0.166;2023-02-01T15:07:24;0.60;;;0.60;;
15629;SDS011;7914;50.842;0.166;2023-02-01T15:09:52;1.00;;;1.00;;
15629;SDS011;7914;50.842;0.166;2023-02-01T15:12:24;0.63;;;0.63;;
15629;SDS011;7914;50.842;0.166;2023-02-01T15:15:15;0.60;;;0.60;;
15629;SDS011;7914;50.842;0.166;2023-02-01T15:17:50;0.70;;;0.70;;
15629;SDS011;7914;50.842;0.166;2023-02-01T15:20:25;0.90;;;0.90;;
15629;SDS011;7914;50.842;0.166;2023-02-01T15:22:59;0.60;;;0.60;;
15629;SDS011;7914;50.842;0.166;2023-02-01T15:25:28;0.90;;;0.90;;
15629;SDS011;7914;50.842;0.166;2023-02-01T15:27:55;0.70;;;0.70;;
15629;SDS011;7914;50.842;0.166;2023-02-01T15:30:26;0.80;;;0.80;;
15629;SDS011;7914;50.842;0.166;2023-02-01T15:33:07;0.80;;;0.80;;
15629;SDS011;7914;50.842;0.166;2023-02-01T15:35:46;0.70;;;0.70;;
15629;SDS011;7914;50.842;0.166;2023-02-01T15:44:04;0.80;;;0.80;;
15629;SDS011;7914;50.842;0.166;2023-02-01T15:46:36;0.60;;;0.60;;
15629;SDS011;7914;50.842;0.166;2023-02-01T15:49:27;0.57;;;0.57;;
15629;SDS011;7914;50.842;0.166;2023-02-01T15:52:01;0.50;;;0.50;;
15629;SDS011;7914;50.842;0.166;2023-02-01T15:57:02;0.60;;;0.60;;
15629;SDS011;7914;50.842;0.166;2023-02-01T16:00:04;0.50;;;0.50;;
15629;SDS011;7914;50.842;0.166;2023-02-01T16:02:35;0.70;;;0.70;;
15629;SDS011;7914;50.842;0.166;2023-02-01T16:05:04;0.67;;;0.67;;
15629;SDS011;7914;50.842;0.166;2023-02-01T16:07:55;0.60;;;0.60;;
15629;SDS011;7914;50.842;0.166;2023-02-01T16:10:28;0.70;;;0.70;;
15629;SDS011;7914;50.842;0.166;2023-02-01T16:12:55;0.60;;;0.60;;
15629;SDS011;7914;50.842;0.166;2023-02-01T16:15:25;0.73;;;0.73;;
15629;SDS011;7914;50.842;0.166;2023-02-01T16:17:51;0.50;;;0.50;;
15629;SDS011;7914;50.842;0.166;2023-02-01T16:20:17;0.70;;;0.70;;
15629;SDS011;7914;50.842;0.166;2023-02-01T16:22:43;0.67;;;0.67;;
15629;SDS011;7914;50.842;0.166;2023-02-01T16:25:09;0.50;;;0.50;;
15629;SDS011;7914;50.842;0.166;2023-02-01T16:27:34;0.40;;;0.40;;
15629;SDS011;7914;50.842;0.166;2023-02-01T16:30:00;0.50;;;0.50;;
15629;SDS011;7914;50.842;0.166;2023-02-01T16:32:26;0.50;;;0.50;;
15629;SDS011;7914;50.842;0.166;2023-02-01T16:34:51;0.53;;;0.53;;
15629;SDS011;7914;50.842;0.166;2023-02-01T16:37:22;0.50;;;0.50;;
15629;SDS011;7914;50.842;0.166;2023-02-01T16:39:49;0.60;;;0.60;;
15629;SDS011;7914;50.842;0.166;2023-02-01T16:42:16;0.70;;;0.70;;
15629;SDS011;7914;50.842;0.166;2023-02-01T16:44:42;0.60;;;0.60;;
15629;SDS011;7914;50.842;0.166;2023-02-01T16:47:11;0.60;;;0.60;;
15629;SDS011;7914;50.842;0.166;2023-02-01T16:49:42;0.60;;;0.60;;
15629;SDS011;7914;50.842;0.166;2023-02-01T16:52:16;0.70;;;0.70;;
15629;SDS011;7914;50.842;0.166;2023-02-01T16:54:44;0.60;;;0.60;;
15629;SDS011;7914;50.842;0.166;2023-02-01T16:57:11;0.53;;;0.53;;
15629;SDS011;7914;50.842;0.166;2023-02-01T16:59:39;0.57;;;0.57;;
15629;SDS011;7914;50.842;0.166;2023-02-01T17:02:05;0.47;;;0.47;;
15629;SDS011;7914;50.842;0.166;2023-02-01T17:04:35;0.50;;;0.50;;
15629;SDS011;7914;50.842;0.166;2023-02-01T17:07:00;0.50;;;0.50;;
15629;SDS011;7914;50.842;0.166;2023-02-01T17:09:33;0.73;;;0.73;;
15629;SDS011;7914;50.842;0.166;2023-02-01T17:12:00;0.40;;;0.40;;
15629;SDS011;7914;50.842;0.166;2023-02-01T17:14:26;0.40;;;0.40;;
15629;SDS011;7914;50.842;0.166;2023-02-01T17:16:52;0.50;;;0.50;;
15629;SDS011;7914;50.842;0.166;2023-02-01T17:19:19;0.50;;;0.50;;
15629;SDS011;7914;50.842;0.166;2023-02-01T17:21:50;0.40;;;0.40;;
15629;SDS011;7914;50.842;0.166;2023-02-01T17:24:20;0.60;;;0.60;;
15629;SDS011;7914;50.842;0.166;2023-02-01T17:26:56;0.60;;;0.60;;
15629;SDS011;7914;50.842;0.166;2023-02-01T17:29:21;0.57;;;0.57;;
15629;SDS011;7914;50.842;0.166;2023-02-01T17:31:50;0.60;;;0.60;;
15629;SDS011;7914;50.842;0.166;2023-02-01T17:34:19;0.60;;;0.60;;
15629;SDS011;7914;50.842;0.166;2023-02-01T17:36:45;0.63;;;0.63;;
15629;SDS011;7914;50.842;0.166;2023-02-01T17:39:12;0.60;;;0.60;;
15629;SDS011;7914;50.842;0.166;2023-02-01T17:41:59;0.57;;;0.57;;
15629;SDS011;7914;50.842;0.166;2023-02-01T17:44:25;0.50;;;0.50;;
15629;SDS011;7914;50.842;0.166;2023-02-01T17:46:50;0.60;;;0.60;;
15629;SDS011;7914;50.842;0.166;2023-02-01T17:49:16;0.50;;;0.50;;
15629;SDS011;7914;50.842;0.166;2023-02-01T17:51:42;0.43;;;0.43;;
15629;SDS011;7914;50.842;0.166;2023-02-01T17:54:09;0.40;;;0.40;;
15629;SDS011;7914;50.842;0.166;2023-02-01T17:56:37;0.50;;;0.50;;
15629;SDS011;7914;50.842;0.166;2023-02-01T17:59:03;0.50;;;0.50;;
15629;SDS011;7914;50.842;0.166;2023-02-01T18:01:28;0.40;;;0.40;;
15629;SDS011;7914;50.842;0.166;2023-02-01T18:03:54;0.60;;;0.60;;